SNXC weather

Viganó II Heliport
Betim, Minas Gerais, Brazil

Public forecast

Using degrees Celsius for public forecast. Weather courtesy of forecast.io.

Closest aviation weather report (METAR) to Viganó II Heliport

Closest report is Carlos Prates Airport, 5.3 nm (9.8 km) ENE. Retrieved 2019/11/15 16:00 UTC (1 hour ago):

SBPR 151600Z 04005KT 9999 SCT018 BKN080 24/19 Q1014

Closest aviation forecast (TAF) to Viganó II Heliport

Forecast is more than 12 hours old.

Closest forecast is Pampulha - Carlos Drummond de Andrade Airport, 9.2 nm (17.1 km) NE. Retrieved 2012/03/26 18:12 UTC (8 years ago):

TAF SBBH 261639Z 2618/2706 09005KT 9999 SCT030 TX28/2618Z TN20/2705Z PROB30 2619/2624 8000 TSRA BKN035 FEW045CB RMK PGG